createdAt,value
2022-10-13T00:00:32.067Z,81.57
2022-10-13T00:01:32.060Z,81.68
2022-10-13T00:02:32.047Z,81.68
2022-10-13T00:03:32.059Z,81.68
2022-10-13T00:04:32.029Z,81.78
2022-10-13T00:05:32.039Z,81.78
2022-10-13T00:06:32.039Z,81.88
2022-10-13T00:07:31.999Z,81.92
2022-10-13T00:08:32.002Z,81.92
2022-10-13T00:09:31.982Z,81.92
2022-10-13T00:10:31.968Z,81.82
2022-10-13T00:11:31.971Z,81.92
2022-10-13T00:12:31.945Z,82.03
2022-10-13T00:13:31.962Z,82.13
2022-10-13T00:14:31.924Z,81.92
2022-10-13T00:15:31.915Z,82.03
2022-10-13T00:16:31.925Z,82.23
2022-10-13T00:17:31.900Z,82.13
2022-10-13T00:18:31.908Z,82.33
2022-10-13T00:19:31.878Z,82.23
2022-10-13T00:20:31.867Z,82.33
2022-10-13T00:21:31.862Z,82.23
2022-10-13T00:22:31.850Z,82.23
2022-10-13T00:23:31.842Z,82.33
2022-10-13T00:24:31.834Z,82.33
2022-10-13T00:25:31.820Z,82.33
2022-10-13T00:26:31.797Z,82.23
2022-10-13T00:27:31.800Z,82.33
2022-10-13T00:28:31.834Z,82.33
2022-10-13T00:29:31.771Z,82.23
2022-10-13T00:30:31.761Z,82.23
2022-10-13T00:31:31.754Z,82.13
2022-10-13T00:32:31.743Z,82.23
2022-10-13T00:33:31.823Z,82.23
2022-10-13T00:34:31.719Z,82.33
2022-10-13T00:35:31.737Z,82.23
2022-10-13T00:36:31.738Z,82.23
2022-10-13T00:37:31.692Z,82.23
2022-10-13T00:38:31.747Z,82.33
2022-10-13T00:39:31.680Z,82.33
2022-10-13T00:40:31.654Z,82.33
2022-10-13T00:41:31.651Z,82.33
2022-10-13T00:42:31.634Z,82.54
2022-10-13T00:43:31.644Z,82.57
2022-10-13T00:44:31.618Z,82.57
2022-10-13T00:45:31.641Z,82.78
2022-10-13T00:46:31.599Z,82.99
2022-10-13T00:47:31.589Z,82.89
2022-10-13T00:48:31.586Z,82.89
2022-10-13T00:49:31.584Z,82.89
2022-10-13T00:50:31.556Z,82.99
2022-10-13T00:51:31.569Z,82.99
2022-10-13T00:52:31.604Z,82.99
2022-10-13T00:53:31.542Z,82.99
2022-10-13T00:54:31.545Z,83.09
2022-10-13T00:55:31.504Z,82.99
2022-10-13T00:56:31.525Z,82.99
2022-10-13T00:57:31.487Z,82.99
2022-10-13T00:58:31.500Z,83.09
2022-10-13T00:59:31.562Z,82.99
2022-10-13T01:00:31.492Z,83.09
2022-10-13T01:01:31.470Z,82.99
2022-10-13T01:02:31.428Z,83.09
2022-10-13T01:03:31.442Z,83.09
2022-10-13T01:04:31.412Z,83.09
2022-10-13T01:05:31.412Z,83.09
2022-10-13T01:06:31.439Z,83.19
2022-10-13T01:07:31.383Z,83.23
2022-10-13T01:08:31.384Z,83.23
2022-10-13T01:09:31.399Z,83.13
2022-10-13T01:10:31.353Z,83.23
2022-10-13T01:11:31.391Z,83.33
2022-10-13T01:12:31.354Z,83.13
2022-10-13T01:13:31.339Z,83.23
2022-10-13T01:14:31.320Z,83.23
2022-10-13T01:15:31.311Z,83.33
2022-10-13T01:16:31.332Z,83.54
2022-10-13T01:17:31.329Z,83.54
2022-10-13T01:18:31.281Z,83.54
2022-10-13T01:19:31.271Z,83.64
2022-10-13T01:20:31.313Z,83.75
2022-10-13T01:21:31.241Z,83.75
2022-10-13T01:22:31.238Z,83.75
2022-10-13T01:23:31.232Z,83.75
2022-10-13T01:24:31.208Z,83.75
2022-10-13T01:25:31.197Z,83.75
2022-10-13T01:26:31.182Z,83.89
2022-10-13T01:27:31.177Z,83.85
2022-10-13T01:28:31.256Z,83.95
2022-10-13T01:29:31.159Z,83.99
2022-10-13T01:30:31.146Z,83.99
2022-10-13T01:31:31.136Z,84.09
2022-10-13T01:32:31.135Z,84.09
2022-10-13T01:33:31.175Z,84.09
2022-10-13T01:34:31.128Z,84.20
2022-10-13T01:35:31.154Z,84.20
2022-10-13T01:36:31.129Z,84.20
2022-10-13T01:37:31.074Z,84.30
2022-10-13T01:38:31.075Z,84.30
2022-10-13T01:39:31.068Z,84.40
2022-10-13T01:40:31.039Z,84.50
2022-10-13T01:41:31.036Z,84.40
2022-10-13T01:42:31.068Z,84.30
2022-10-13T01:43:31.055Z,84.30
2022-10-13T01:44:31.022Z,84.30
2022-10-13T01:45:30.998Z,84.40
2022-10-13T01:46:30.986Z,84.30
2022-10-13T01:47:30.970Z,84.50
2022-10-13T01:48:31.015Z,84.50
2022-10-13T01:49:31.008Z,84.40
2022-10-13T01:50:31.101Z,84.40
2022-10-13T01:51:30.932Z,84.40
2022-10-13T01:52:30.917Z,84.30
2022-10-13T01:53:30.973Z,84.30
2022-10-13T01:54:30.895Z,84.40
2022-10-13T01:55:30.891Z,84.50
2022-10-13T01:56:30.893Z,84.50
2022-10-13T01:57:30.878Z,84.50
2022-10-13T01:58:30.906Z,84.71
2022-10-13T01:59:30.850Z,84.61
2022-10-13T02:00:30.859Z,84.61
2022-10-13T02:01:30.829Z,84.71
2022-10-13T02:02:30.813Z,84.64
2022-10-13T02:03:30.843Z,84.75
2022-10-13T02:04:30.796Z,84.75
2022-10-13T02:05:30.788Z,84.75
2022-10-13T02:06:30.814Z,84.85
2022-10-13T02:07:30.773Z,84.85
2022-10-13T02:08:30.827Z,84.75
2022-10-13T02:09:30.756Z,84.85
2022-10-13T02:10:30.734Z,84.95
2022-10-13T02:11:30.746Z,84.95
2022-10-13T02:12:30.715Z,85.02
2022-10-13T02:13:30.758Z,85.06
2022-10-13T02:14:30.689Z,84.95
2022-10-13T02:15:30.686Z,85.16
2022-10-13T02:16:30.669Z,85.16
2022-10-13T02:17:30.680Z,85.16
2022-10-13T02:18:30.663Z,85.16
2022-10-13T02:19:30.647Z,85.16
2022-10-13T02:20:30.634Z,85.16
2022-10-13T02:21:30.626Z,85.16
2022-10-13T02:22:30.624Z,85.26
2022-10-13T02:23:30.617Z,85.12
2022-10-13T02:24:30.587Z,84.91
2022-10-13T02:25:30.578Z,85.02
2022-10-13T02:26:30.567Z,85.02
2022-10-13T02:27:30.561Z,85.12
2022-10-13T02:28:30.597Z,85.16
2022-10-13T02:29:30.544Z,85.02
2022-10-13T02:30:30.541Z,85.02
2022-10-13T02:31:30.526Z,85.02
2022-10-13T02:32:30.504Z,84.91
2022-10-13T02:33:30.581Z,85.12
2022-10-13T02:34:30.484Z,85.22
2022-10-13T02:35:30.482Z,85.26
2022-10-13T02:36:30.462Z,85.06
2022-10-13T02:37:30.468Z,85.26
2022-10-13T02:38:30.467Z,85.47
2022-10-13T02:39:30.439Z,85.47
2022-10-13T02:40:30.429Z,85.47
2022-10-13T02:41:30.422Z,85.47
2022-10-13T02:42:30.403Z,85.57
2022-10-13T02:43:30.469Z,85.68
2022-10-13T02:44:30.380Z,85.68
2022-10-13T02:45:30.420Z,85.68
2022-10-13T02:46:30.361Z,85.68
2022-10-13T02:47:30.356Z,85.68
2022-10-13T02:48:30.380Z,85.78
2022-10-13T02:49:30.356Z,85.78
2022-10-13T02:50:30.325Z,85.78
2022-10-13T02:51:30.320Z,85.88
2022-10-13T02:52:30.303Z,85.98
2022-10-13T02:53:30.311Z,86.08
2022-10-13T02:54:30.277Z,85.98
2022-10-13T02:55:30.295Z,86.08
2022-10-13T02:56:30.264Z,86.23
2022-10-13T02:57:36.318Z,86.23
2022-10-13T02:58:32.877Z,86.33
2022-10-13T02:59:30.232Z,86.33
2022-10-13T03:00:30.897Z,86.33
2022-10-13T03:01:30.208Z,86.43
2022-10-13T03:02:30.224Z,86.43
2022-10-13T03:03:30.195Z,86.54
2022-10-13T03:04:30.179Z,86.54
2022-10-13T03:05:30.174Z,86.54
2022-10-13T03:06:30.161Z,86.33
2022-10-13T03:07:30.162Z,86.33
2022-10-13T03:08:30.157Z,86.33
2022-10-13T03:09:30.129Z,86.43
2022-10-13T03:10:30.122Z,86.54
2022-10-13T03:11:30.110Z,86.64
2022-10-13T03:12:30.106Z,86.74
2022-10-13T03:13:30.088Z,86.64
2022-10-13T03:14:30.074Z,86.74
2022-10-13T03:15:30.076Z,86.85
2022-10-13T03:16:30.059Z,86.74
2022-10-13T03:17:30.063Z,86.64
2022-10-13T03:18:30.040Z,86.64
2022-10-13T03:19:30.026Z,86.74
2022-10-13T03:20:30.012Z,86.85
2022-10-13T03:21:30.004Z,86.85
2022-10-13T03:22:30.009Z,86.85
2022-10-13T03:23:29.984Z,86.95
2022-10-13T03:24:29.969Z,86.95
2022-10-13T03:25:29.981Z,86.95
2022-10-13T03:26:29.953Z,86.99
2022-10-13T03:27:29.968Z,86.99
2022-10-13T03:28:29.988Z,86.99
2022-10-13T03:29:29.924Z,87.09
2022-10-13T03:30:29.909Z,87.19
2022-10-13T03:31:29.908Z,86.99
2022-10-13T03:32:29.904Z,87.19
2022-10-13T03:33:29.885Z,87.30
2022-10-13T03:34:29.873Z,87.30
2022-10-13T03:35:29.864Z,87.19
2022-10-13T03:36:29.847Z,87.19
2022-10-13T03:37:29.869Z,87.09
2022-10-13T03:38:29.825Z,87.09
2022-10-13T03:39:29.822Z,86.99
2022-10-13T03:40:29.826Z,86.99
2022-10-13T03:41:29.811Z,86.99
2022-10-13T03:42:29.785Z,87.09
2022-10-13T03:43:29.790Z,87.19
2022-10-13T03:44:29.772Z,87.19
2022-10-13T03:45:29.761Z,87.19
2022-10-13T03:46:29.748Z,87.40
2022-10-13T03:47:29.902Z,87.51
2022-10-13T03:48:29.734Z,87.51
2022-10-13T03:49:29.719Z,87.51
2022-10-13T03:50:29.702Z,87.40
2022-10-13T03:51:29.697Z,87.30
2022-10-13T03:52:29.723Z,87.19
2022-10-13T03:53:29.694Z,87.40
2022-10-13T03:54:29.678Z,87.40
2022-10-13T03:55:29.663Z,87.19
2022-10-13T03:56:29.643Z,87.19
2022-10-13T03:57:29.656Z,87.19
2022-10-13T03:58:29.636Z,87.09
2022-10-13T03:59:34.218Z,87.09
2022-10-13T04:00:29.614Z,87.09
2022-10-13T04:01:29.709Z,87.09
2022-10-13T04:02:29.607Z,86.99
2022-10-13T04:03:29.599Z,86.99
2022-10-13T04:04:29.581Z,86.99
2022-10-13T04:05:29.561Z,86.99
2022-10-13T04:06:29.571Z,86.99
2022-10-13T04:07:29.571Z,86.99
2022-10-13T04:08:29.523Z,87.09
2022-10-13T04:09:29.516Z,87.09
2022-10-13T04:10:29.538Z,87.09
2022-10-13T04:11:29.498Z,87.09
2022-10-13T04:12:29.531Z,87.09
2022-10-13T04:13:29.581Z,87.19
2022-10-13T04:14:29.467Z,87.30
2022-10-13T04:15:29.449Z,87.30
2022-10-13T04:16:29.483Z,87.40
2022-10-13T04:17:29.476Z,87.60
2022-10-13T04:18:29.429Z,87.51
2022-10-13T04:19:29.451Z,87.60
2022-10-13T04:20:29.404Z,87.60
2022-10-13T04:21:29.407Z,87.71
2022-10-13T04:22:29.427Z,87.81
2022-10-13T04:23:29.421Z,87.71
2022-10-13T04:24:29.390Z,87.71
2022-10-13T04:25:29.354Z,87.71
2022-10-13T04:26:29.343Z,87.60
2022-10-13T04:27:29.352Z,87.71
2022-10-13T04:28:29.352Z,87.81
2022-10-13T04:29:29.307Z,87.71
2022-10-13T04:30:29.331Z,87.71
2022-10-13T04:31:29.338Z,87.81
2022-10-13T04:32:29.340Z,87.81
2022-10-13T04:33:29.273Z,87.71
2022-10-13T04:34:29.261Z,87.71
2022-10-13T04:35:29.246Z,87.92
2022-10-13T04:36:29.240Z,88.02
2022-10-13T04:37:29.250Z,88.12
2022-10-13T04:38:29.217Z,88.02
2022-10-13T04:39:29.220Z,88.02
2022-10-13T04:40:29.205Z,88.02
2022-10-13T04:41:29.195Z,88.12
2022-10-13T04:42:29.187Z,88.02
2022-10-13T04:43:29.161Z,88.02
2022-10-13T04:44:29.165Z,88.23
2022-10-13T04:45:29.140Z,88.23
2022-10-13T04:46:29.135Z,88.95
2022-10-13T04:47:32.375Z,89.05
2022-10-13T04:48:29.123Z,89.05
2022-10-13T04:49:29.149Z,89.15
2022-10-13T04:50:29.102Z,88.74
2022-10-13T04:51:29.084Z,88.43
2022-10-13T04:52:29.093Z,88.53
2022-10-13T04:53:29.075Z,88.53
2022-10-13T04:54:29.061Z,88.43
2022-10-13T04:55:29.052Z,88.53
2022-10-13T04:56:29.060Z,88.64
2022-10-13T04:57:29.035Z,88.74
2022-10-13T04:58:29.017Z,88.74
2022-10-13T04:59:29.007Z,88.64
2022-10-13T05:00:29.084Z,88.64
2022-10-13T05:01:28.991Z,88.74
2022-10-13T05:02:28.980Z,88.64
2022-10-13T05:03:28.990Z,88.64
2022-10-13T05:04:28.953Z,88.53
2022-10-13T05:05:28.894Z,88.53
2022-10-13T05:06:28.880Z,88.49
2022-10-13T05:07:28.870Z,88.39
2022-10-13T05:08:28.869Z,88.49
2022-10-13T05:09:28.842Z,88.49
2022-10-13T05:10:33.875Z,88.49
2022-10-13T05:11:28.829Z,88.59
2022-10-13T05:12:28.853Z,88.39
2022-10-13T05:13:28.819Z,88.39
2022-10-13T05:14:28.813Z,88.39
2022-10-13T05:15:28.791Z,88.49
2022-10-13T05:16:28.774Z,88.59
2022-10-13T05:17:31.687Z,88.49
2022-10-13T05:18:28.799Z,88.70
2022-10-13T05:19:28.746Z,88.70
2022-10-13T05:20:28.730Z,88.70
2022-10-13T05:21:28.865Z,88.80
2022-10-13T05:22:28.731Z,88.80
2022-10-13T05:23:28.710Z,89.25
2022-10-13T05:24:28.721Z,89.15
2022-10-13T05:25:32.975Z,89.22
2022-10-13T05:26:28.717Z,89.31
2022-10-13T05:27:28.656Z,89.22
2022-10-13T05:28:28.679Z,89.22
2022-10-13T05:29:28.637Z,89.31
2022-10-13T05:30:28.629Z,89.31
2022-10-13T05:31:28.624Z,89.25
2022-10-13T05:32:28.656Z,89.22
2022-10-13T05:33:28.595Z,89.31
2022-10-13T05:34:28.747Z,89.31
2022-10-13T05:35:28.593Z,89.22
2022-10-13T05:36:28.568Z,89.11
2022-10-13T05:37:28.568Z,89.01
2022-10-13T05:38:28.593Z,89.11
2022-10-13T05:39:28.533Z,89.22
2022-10-13T05:40:28.534Z,89.01
2022-10-13T05:45:02.088Z,89.01
2022-10-13T05:46:03.059Z,88.80
2022-10-13T05:47:07.389Z,88.80
2022-10-13T05:48:03.039Z,88.70
2022-10-13T05:49:03.027Z,88.59
2022-10-13T05:50:03.007Z,88.35
2022-10-13T05:51:03.006Z,88.24
2022-10-13T05:52:03.005Z,88.59
2022-10-13T05:53:02.982Z,88.59
2022-10-13T05:54:02.975Z,88.70
2022-10-13T05:55:02.971Z,88.70
2022-10-13T05:56:03.003Z,88.80
2022-10-13T05:57:03.081Z,88.86
2022-10-13T05:58:02.928Z,88.70
2022-10-13T05:59:02.991Z,88.80
2022-10-13T06:00:02.948Z,88.80
2022-10-13T06:01:02.900Z,88.86
2022-10-13T06:02:02.980Z,88.76
2022-10-13T06:03:02.888Z,88.66
2022-10-13T06:04:02.863Z,88.70
2022-10-13T06:05:02.900Z,88.66
2022-10-13T06:06:02.839Z,88.76
2022-10-13T06:07:02.850Z,89.07
2022-10-13T06:08:02.827Z,88.96
2022-10-13T06:09:02.816Z,88.96
2022-10-13T06:10:02.801Z,88.86
2022-10-13T06:11:02.855Z,88.86
2022-10-13T06:12:02.816Z,88.96
2022-10-13T06:13:02.776Z,89.07
2022-10-13T06:14:02.771Z,89.17
2022-10-13T06:15:02.763Z,89.42
2022-10-13T06:16:02.744Z,89.42
2022-10-13T06:17:02.766Z,89.58
2022-10-13T06:18:02.721Z,89.48
2022-10-13T06:19:02.714Z,89.52
2022-10-13T06:20:02.697Z,89.48
2022-10-13T06:21:02.699Z,89.48
2022-10-13T06:22:03.885Z,89.48
2022-10-13T06:23:02.681Z,89.38
2022-10-13T06:24:02.670Z,89.38
2022-10-13T06:25:02.662Z,89.31
2022-10-13T06:26:02.645Z,89.31
2022-10-13T06:27:02.653Z,89.42
2022-10-13T06:28:02.623Z,89.52
2022-10-13T06:32:36.272Z,89.28
2022-10-13T06:33:37.204Z,89.17
2022-10-13T06:34:37.923Z,89.07
2022-10-13T06:35:37.182Z,88.96
2022-10-13T06:36:37.176Z,88.76
2022-10-13T06:37:37.171Z,88.66
2022-10-13T06:38:37.157Z,88.66
2022-10-13T06:39:37.140Z,88.96
2022-10-13T06:40:37.139Z,88.86
2022-10-13T06:41:37.117Z,88.72
2022-10-13T06:42:37.134Z,88.62
2022-10-13T06:43:40.509Z,88.82
2022-10-13T06:44:37.090Z,88.62
2022-10-13T06:45:37.075Z,88.41
2022-10-13T06:47:27.755Z,88.31
2022-10-13T06:48:28.727Z,88.41
2022-10-13T06:49:28.716Z,88.41
2022-10-13T06:50:30.300Z,88.20
2022-10-13T06:51:28.701Z,88.41
2022-10-13T06:52:28.701Z,88.31
2022-10-13T06:53:28.673Z,88.41
2022-10-13T06:54:28.673Z,88.31
2022-10-13T06:55:28.652Z,88.10
2022-10-13T06:56:28.649Z,88.10
2022-10-13T06:57:28.640Z,88.10
2022-10-13T06:58:28.628Z,87.96
2022-10-13T06:59:28.608Z,87.85
2022-10-13T07:00:28.659Z,87.96
2022-10-13T07:01:28.593Z,87.85
2022-10-13T07:02:28.591Z,87.65
2022-10-13T07:03:28.565Z,87.45
2022-10-13T07:04:28.558Z,87.30
2022-10-13T07:05:28.547Z,87.40
2022-10-13T07:06:28.541Z,87.10
2022-10-13T07:07:28.537Z,87.10
2022-10-13T07:08:28.523Z,86.89
2022-10-13T07:09:28.520Z,86.85
2022-10-13T07:10:28.497Z,86.65
2022-10-13T07:11:28.480Z,86.75
2022-10-13T07:12:28.489Z,86.95
2022-10-13T07:13:29.652Z,87.20
2022-10-13T07:14:28.488Z,87.05
2022-10-13T07:15:28.444Z,87.05
2022-10-13T07:16:28.438Z,86.85
2022-10-13T07:17:28.433Z,86.75
2022-10-13T07:18:28.412Z,86.50
2022-10-13T07:19:28.399Z,86.50
2022-10-13T07:20:28.389Z,85.99
2022-10-13T07:21:28.392Z,86.05
2022-10-13T07:22:28.385Z,86.09
2022-10-13T07:23:28.355Z,86.19
2022-10-13T07:24:28.349Z,86.19
2022-10-13T07:25:28.348Z,85.99
2022-10-13T07:26:28.326Z,85.64
2022-10-13T07:27:28.322Z,84.99
2022-10-13T07:28:28.388Z,84.68
2022-10-13T07:29:28.291Z,83.82
2022-10-13T07:30:28.285Z,83.06
2022-10-13T07:31:28.278Z,82.55
2022-10-13T07:32:28.281Z,81.96
2022-10-13T07:33:28.249Z,79.91
2022-10-13T07:34:28.248Z,76.80
2022-10-13T07:35:30.652Z,76.26
2022-10-13T07:36:28.239Z,75.98
2022-10-13T07:37:28.289Z,73.57
2022-10-13T07:38:28.205Z,73.97
2022-10-13T07:39:28.193Z,72.65
2022-10-13T07:40:28.181Z,69.91
2022-10-13T07:41:28.175Z,68.12
2022-10-13T07:42:28.175Z,66.23
2022-10-13T07:43:28.146Z,66.74
2022-10-13T07:44:28.145Z,65.72
2022-10-13T07:45:28.122Z,66.49
2022-10-13T07:46:28.115Z,68.62
2022-10-13T07:47:28.110Z,70.45
2022-10-13T07:48:28.097Z,71.80
2022-10-13T07:49:28.092Z,73.10
2022-10-13T07:50:28.073Z,74.35
2022-10-13T07:51:28.063Z,75.20
2022-10-13T07:52:28.064Z,76.16
2022-10-13T07:53:28.043Z,77.11
2022-10-13T07:54:28.043Z,77.55
2022-10-13T07:55:28.015Z,75.03
2022-10-13T07:56:28.012Z,72.21
2022-10-13T07:57:28.003Z,68.73
2022-10-13T07:58:27.987Z,65.86
2022-10-13T07:59:27.974Z,63.75
2022-10-13T08:00:27.970Z,61.87
2022-10-13T08:01:27.989Z,60.49
2022-10-13T08:02:27.961Z,59.45
2022-10-13T08:03:27.996Z,58.32
2022-10-13T08:04:27.928Z,57.89
2022-10-13T08:05:27.921Z,57.28
2022-10-13T08:06:27.995Z,57.94
2022-10-13T08:07:27.907Z,59.05
2022-10-13T08:08:27.879Z,59.02
2022-10-13T08:09:27.872Z,58.72
2022-10-13T08:10:27.861Z,58.06
2022-10-13T08:11:27.847Z,57.23
2022-10-13T08:12:27.861Z,56.40
2022-10-13T08:13:27.827Z,55.66
2022-10-13T08:14:27.878Z,55.13
2022-10-13T08:15:27.801Z,54.50
2022-10-13T08:16:27.798Z,54.08
2022-10-13T08:17:27.798Z,53.95
2022-10-13T08:18:27.778Z,54.20
2022-10-13T08:19:27.770Z,55.54
2022-10-13T08:20:36.197Z,56.29
2022-10-13T08:21:53.424Z,57.10
2022-10-13T08:22:28.528Z,57.53
2022-10-13T08:23:27.721Z,58.29
2022-10-13T08:24:27.724Z,59.22
2022-10-13T08:25:27.696Z,60.19
2022-10-13T08:26:27.687Z,61.63
2022-10-13T08:27:47.617Z,62.90
2022-10-13T08:28:27.702Z,65.12
2022-10-13T08:29:27.747Z,67.44
2022-10-13T08:30:27.786Z,68.79
2022-10-13T08:31:27.857Z,69.84
2022-10-13T08:32:27.645Z,71.09
2022-10-13T08:33:27.609Z,71.94
2022-10-13T08:34:27.604Z,72.58
2022-10-13T08:35:31.271Z,73.43
2022-10-13T08:36:27.592Z,73.84
2022-10-13T08:37:27.870Z,74.15
2022-10-13T08:38:27.588Z,74.35
2022-10-13T08:39:27.551Z,74.24
2022-10-13T08:40:27.538Z,74.24
2022-10-13T08:41:27.523Z,73.70
2022-10-13T08:42:27.528Z,73.80
2022-10-13T08:43:27.502Z,73.80
2022-10-13T08:45:42.830Z,73.87
2022-10-13T08:46:27.484Z,73.67
2022-10-13T08:47:27.473Z,73.77
2022-10-13T08:48:27.453Z,73.67
2022-10-13T08:49:27.437Z,74.11
2022-10-13T08:50:27.428Z,74.21
2022-10-13T08:51:27.422Z,74.52
2022-10-13T08:52:27.425Z,75.06
2022-10-13T08:53:27.395Z,75.16
2022-10-13T08:54:27.416Z,75.57
2022-10-13T08:55:27.380Z,75.57
2022-10-13T08:56:27.371Z,75.46
2022-10-13T08:57:27.365Z,75.33
2022-10-13T08:58:27.350Z,75.23
2022-10-13T08:59:27.337Z,75.12
2022-10-13T09:00:27.335Z,74.92
2022-10-13T09:01:27.378Z,75.02
2022-10-13T09:02:27.311Z,75.33
2022-10-13T09:03:27.288Z,75.33
2022-10-13T09:04:27.283Z,75.12
2022-10-13T09:05:27.267Z,75.43
2022-10-13T09:06:27.261Z,75.43
2022-10-13T09:07:27.255Z,75.43
2022-10-13T09:08:27.240Z,75.19
2022-10-13T09:09:27.223Z,75.19
2022-10-13T09:10:27.223Z,74.99
2022-10-13T09:11:27.201Z,74.79
2022-10-13T09:12:27.209Z,74.44
2022-10-13T09:13:27.196Z,74.55
2022-10-13T09:14:27.173Z,74.44
2022-10-13T09:15:27.159Z,74.79
2022-10-13T09:16:27.153Z,74.88
2022-10-13T09:17:27.150Z,74.95
2022-10-13T09:18:27.133Z,74.85
2022-10-13T09:19:27.120Z,74.75
2022-10-13T09:20:27.111Z,74.65
2022-10-13T09:21:27.094Z,74.65
2022-10-13T09:22:27.099Z,74.75
2022-10-13T09:23:27.077Z,74.85
2022-10-13T09:24:27.073Z,74.95
2022-10-13T09:25:27.053Z,75.16
2022-10-13T09:26:27.047Z,75.16
2022-10-13T09:27:27.064Z,75.40
2022-10-13T09:28:27.235Z,75.70
2022-10-13T09:29:27.013Z,76.01
2022-10-13T09:30:27.006Z,76.21
2022-10-13T09:31:26.994Z,76.01
2022-10-13T09:32:27.001Z,76.10
2022-10-13T09:33:26.983Z,76.45
2022-10-13T09:34:26.962Z,76.55
2022-10-13T09:35:26.963Z,76.75
2022-10-13T09:36:26.940Z,77.06
2022-10-13T09:37:26.955Z,77.06
2022-10-13T09:38:26.921Z,77.06
2022-10-13T09:39:26.917Z,77.06
2022-10-13T09:40:26.899Z,76.95
2022-10-13T09:41:26.891Z,77.12
2022-10-13T09:42:26.902Z,77.06
2022-10-13T09:43:26.868Z,77.12
2022-10-13T09:44:27.725Z,77.02
2022-10-13T09:45:26.850Z,77.02
2022-10-13T09:46:26.841Z,76.82
2022-10-13T09:47:26.838Z,76.82
2022-10-13T09:48:26.819Z,76.92
2022-10-13T09:49:26.804Z,76.72
2022-10-13T09:50:26.799Z,76.61
2022-10-13T09:51:26.784Z,76.61
2022-10-13T09:52:26.780Z,76.48
2022-10-13T09:53:26.766Z,76.48
2022-10-13T09:54:26.746Z,76.17
2022-10-13T09:55:31.395Z,76.07
2022-10-13T09:56:26.731Z,76.07
2022-10-13T09:57:26.746Z,75.93
2022-10-13T09:58:26.707Z,75.93
2022-10-13T09:59:26.711Z,75.83
2022-10-13T10:00:26.687Z,75.63
2022-10-13T10:01:26.683Z,75.73
2022-10-13T10:02:27.436Z,75.83
2022-10-13T10:03:26.655Z,75.83
2022-10-13T10:04:26.678Z,75.70
2022-10-13T10:05:26.640Z,75.63
2022-10-13T10:06:27.940Z,75.73
2022-10-13T10:07:26.643Z,76.03
2022-10-13T10:08:33.797Z,76.14
2022-10-13T10:09:26.600Z,76.03
2022-10-13T10:10:26.587Z,75.93
2022-10-13T10:11:26.577Z,76.03
2022-10-13T10:12:27.858Z,76.00
2022-10-13T10:13:26.563Z,75.90
2022-10-13T10:14:26.537Z,76.00
2022-10-13T10:15:26.537Z,76.10
2022-10-13T10:16:26.516Z,76.00
2022-10-13T10:17:26.526Z,76.10
2022-10-13T10:18:26.490Z,76.10
2022-10-13T10:19:26.483Z,76.10
2022-10-13T10:20:26.486Z,75.90
2022-10-13T10:21:26.463Z,75.90
2022-10-13T10:22:26.458Z,76.00
2022-10-13T10:23:26.438Z,75.96
2022-10-13T10:24:26.426Z,75.86
2022-10-13T10:25:26.422Z,75.86
2022-10-13T10:26:31.626Z,75.76
2022-10-13T10:27:26.415Z,75.66
2022-10-13T10:28:26.424Z,75.56
2022-10-13T10:29:26.377Z,75.62
2022-10-13T10:30:26.365Z,75.32
2022-10-13T10:31:26.349Z,75.52
2022-10-13T10:32:26.347Z,75.52
2022-10-13T10:33:26.339Z,75.42
2022-10-13T10:34:26.317Z,75.52
2022-10-13T10:35:26.311Z,75.42
2022-10-13T10:36:26.299Z,75.52
2022-10-13T10:37:26.308Z,75.52
2022-10-13T10:38:26.277Z,75.93
2022-10-13T10:39:26.271Z,75.93
2022-10-13T10:40:26.259Z,75.82
2022-10-13T10:41:26.261Z,75.62
2022-10-13T10:42:26.256Z,75.73
2022-10-13T10:43:26.224Z,75.73
2022-10-13T10:44:26.224Z,75.62
2022-10-13T10:45:26.202Z,75.49
2022-10-13T10:46:26.195Z,75.38
2022-10-13T10:47:26.511Z,75.69
2022-10-13T10:48:26.176Z,75.38
2022-10-13T10:49:26.168Z,75.38
2022-10-13T10:50:26.147Z,75.18
2022-10-13T10:51:26.143Z,75.18
2022-10-13T10:52:26.139Z,75.18
2022-10-13T10:53:26.122Z,75.28
2022-10-13T10:54:26.106Z,75.49
2022-10-13T10:55:26.096Z,75.38
2022-10-13T10:56:26.086Z,75.38
2022-10-13T10:57:26.120Z,75.38
2022-10-13T10:58:26.076Z,75.38
2022-10-13T10:59:26.054Z,75.49
2022-10-13T11:00:29.107Z,75.35
2022-10-13T11:01:26.113Z,75.49
2022-10-13T11:02:26.051Z,75.45
2022-10-13T11:03:26.020Z,75.15
2022-10-13T11:04:26.683Z,75.25
2022-10-13T11:05:26.008Z,75.35
2022-10-13T11:06:25.982Z,75.25
2022-10-13T11:07:25.989Z,75.04
2022-10-13T11:08:25.964Z,75.35
2022-10-13T11:09:25.950Z,75.35
2022-10-13T11:10:25.989Z,75.15
2022-10-13T11:11:29.314Z,74.91
2022-10-13T11:12:25.927Z,74.91
2022-10-13T11:13:25.914Z,74.71
2022-10-13T11:14:25.891Z,74.71
2022-10-13T11:15:25.882Z,74.51
2022-10-13T11:16:25.876Z,74.60
2022-10-13T11:17:25.895Z,74.51
2022-10-13T11:18:25.852Z,74.51
2022-10-13T11:19:25.846Z,74.37
2022-10-13T11:20:25.836Z,74.07
2022-10-13T11:21:25.831Z,74.27
2022-10-13T11:22:25.820Z,74.27
2022-10-13T11:23:25.808Z,74.37
2022-10-13T11:24:25.797Z,73.93
2022-10-13T11:25:25.781Z,74.07
2022-10-13T11:26:25.762Z,74.27
2022-10-13T11:27:25.778Z,74.03
2022-10-13T11:28:25.883Z,73.93
2022-10-13T11:29:25.740Z,73.93
2022-10-13T11:30:25.758Z,73.72
2022-10-13T11:31:25.719Z,73.83
2022-10-13T11:32:25.757Z,73.79
2022-10-13T11:33:25.699Z,73.79
2022-10-13T11:34:25.681Z,73.39
2022-10-13T11:35:25.679Z,73.59
2022-10-13T11:36:25.685Z,73.35
2022-10-13T11:37:25.663Z,72.95
2022-10-13T11:38:25.666Z,72.64
2022-10-13T11:39:25.716Z,72.64
2022-10-13T11:40:25.627Z,72.55
2022-10-13T11:41:25.614Z,72.34
2022-10-13T11:42:25.621Z,72.14
2022-10-13T11:43:25.593Z,72.34
2022-10-13T11:44:25.637Z,71.84
2022-10-13T11:45:25.566Z,72.24
2022-10-13T11:46:25.571Z,71.84
2022-10-13T11:47:25.552Z,71.53
2022-10-13T11:48:25.530Z,71.73
2022-10-13T11:49:25.527Z,71.84
2022-10-13T11:50:25.511Z,71.53
2022-10-13T11:51:25.507Z,71.73
2022-10-13T11:52:25.504Z,71.84
2022-10-13T11:53:25.483Z,71.53
2022-10-13T11:54:25.472Z,71.44
2022-10-13T11:55:25.460Z,71.64
2022-10-13T11:56:25.492Z,71.94
2022-10-13T11:57:25.455Z,71.80
2022-10-13T11:58:25.428Z,71.50
2022-10-13T11:59:25.439Z,71.53
2022-10-13T12:00:25.405Z,71.13
2022-10-13T12:01:25.414Z,71.30
2022-10-13T12:02:25.932Z,71.30
2022-10-13T12:03:25.378Z,71.17
2022-10-13T12:04:25.364Z,70.66
2022-10-13T12:05:25.409Z,70.02
2022-10-13T12:06:25.338Z,69.59
2022-10-13T12:07:25.353Z,69.11
2022-10-13T12:08:25.322Z,68.48
2022-10-13T12:09:25.317Z,68.61
2022-10-13T12:10:25.296Z,68.71
2022-10-13T12:11:25.302Z,69.15
2022-10-13T12:12:25.283Z,69.24
2022-10-13T12:13:25.275Z,69.55
2022-10-13T12:14:25.294Z,69.21
2022-10-13T12:15:25.275Z,69.21
2022-10-13T12:16:25.244Z,68.44
2022-10-13T12:17:25.715Z,69.24
2022-10-13T12:18:25.218Z,69.45
2022-10-13T12:19:25.208Z,69.35
2022-10-13T12:20:25.213Z,69.38
2022-10-13T12:21:25.185Z,69.45
2022-10-13T12:22:25.193Z,69.35
2022-10-13T12:23:25.165Z,68.54
2022-10-13T12:24:25.156Z,68.44
2022-10-13T12:25:25.145Z,67.73
2022-10-13T12:26:25.138Z,67.13
2022-10-13T12:27:25.154Z,67.63
2022-10-13T12:28:25.134Z,67.53
2022-10-13T12:29:25.105Z,67.43
2022-10-13T12:30:25.086Z,67.43
2022-10-13T12:31:25.077Z,67.43
2022-10-13T12:32:25.099Z,67.13
2022-10-13T12:33:25.063Z,67.33
2022-10-13T12:34:25.069Z,66.12
2022-10-13T12:35:25.042Z,65.88
2022-10-13T12:36:25.033Z,65.38
2022-10-13T12:37:25.033Z,64.98
2022-10-13T12:38:25.011Z,65.08
2022-10-13T12:39:25.012Z,64.98
2022-10-13T12:40:24.990Z,65.18
2022-10-13T12:41:24.981Z,64.87
2022-10-13T12:42:24.974Z,65.28
2022-10-13T12:43:24.964Z,65.68
2022-10-13T12:44:24.944Z,65.68
2022-10-13T12:45:24.933Z,65.88
2022-10-13T12:46:24.922Z,65.78
2022-10-13T12:48:35.250Z,65.61
2022-10-13T12:49:36.219Z,65.71
2022-10-13T12:50:36.211Z,66.02
2022-10-13T12:51:36.201Z,66.02
2022-10-13T12:52:36.202Z,65.92
2022-10-13T12:53:36.190Z,66.42
2022-10-13T12:54:36.575Z,66.62
2022-10-13T12:55:36.157Z,66.72
2022-10-13T12:56:36.184Z,66.93
2022-10-13T12:57:36.134Z,65.84
2022-10-13T12:58:36.149Z,66.25
2022-10-13T12:59:36.293Z,66.55
2022-10-13T13:00:36.153Z,66.45
2022-10-13T13:01:36.106Z,66.65
2022-10-13T13:02:36.100Z,66.86